TimeEDT,TemperatureF,Dew PointF,Humidity,Sea Level PressureIn,VisibilityMPH,Wind Direction,Wind SpeedMPH,Gust SpeedMPH,PrecipitationIn,Events,Conditions,WindDirDegrees,DateUTC
12:53 AM,55.0,53.1,93,30.04,10.0,NNE,4.6,-,N/A,,Clear,30,2013-08-06 04:53:00
1:53 AM,54.0,53.1,97,30.04,10.0,Calm,Calm,-,N/A,,Clear,0,2013-08-06 05:53:00
2:53 AM,54.0,51.1,90,30.05,10.0,Calm,Calm,-,N/A,,Clear,0,2013-08-06 06:53:00
3:53 AM,51.1,50.0,96,30.05,10.0,Calm,Calm,-,N/A,,Clear,0,2013-08-06 07:53:00
4:53 AM,52.0,50.0,93,30.06,10.0,Calm,Calm,-,N/A,,Clear,0,2013-08-06 08:53:00
5:53 AM,50.0,48.0,93,30.07,10.0,Calm,Calm,-,N/A,,Clear,0,2013-08-06 09:53:00
6:53 AM,52.0,50.0,93,30.10,10.0,Calm,Calm,-,N/A,,Clear,0,2013-08-06 10:53:00
7:53 AM,57.9,52.0,81,30.10,10.0,Calm,Calm,-,N/A,,Clear,0,2013-08-06 11:53:00
8:53 AM,64.0,55.9,75,30.10,10.0,Variable,3.5,-,N/A,,Clear,0,2013-08-06 12:53:00
9:53 AM,69.1,53.1,57,30.09,10.0,Calm,Calm,-,N/A,,Clear,0,2013-08-06 13:53:00
10:53 AM,73.0,55.0,53,30.09,10.0,East,3.5,-,N/A,,Clear,80,2013-08-06 14:53:00
11:53 AM,75.0,54.0,48,30.09,10.0,SW,3.5,-,N/A,,Clear,230,2013-08-06 15:53:00
12:53 PM,77.0,51.1,40,30.09,10.0,WSW,5.8,-,N/A,,Clear,250,2013-08-06 16:53:00
1:53 PM,79.0,50.0,36,30.07,10.0,Variable,4.6,-,N/A,,Scattered Clouds,0,2013-08-06 17:53:00
2:53 PM,79.0,53.1,40,30.06,10.0,South,4.6,-,N/A,,Mostly Cloudy,180,2013-08-06 18:53:00
3:53 PM,80.1,55.0,42,30.06,10.0,SE,6.9,-,N/A,,Mostly Cloudy,130,2013-08-06 19:53:00
4:53 PM,80.1,54.0,40,30.06,10.0,ESE,6.9,-,N/A,,Clear,120,2013-08-06 20:53:00
5:53 PM,78.1,55.9,46,30.06,10.0,Variable,5.8,-,N/A,,Mostly Cloudy,0,2013-08-06 21:53:00
6:53 PM,75.0,57.0,53,30.07,10.0,SSE,4.6,-,N/A,,Overcast,150,2013-08-06 22:53:00
7:53 PM,73.9,55.9,53,30.08,10.0,Calm,Calm,-,N/A,,Overcast,0,2013-08-06 23:53:00
8:53 PM,72.0,55.9,57,30.08,10.0,Calm,Calm,-,N/A,,Mostly Cloudy,0,2013-08-07 00:53:00
9:53 PM,68.0,55.0,63,30.09,10.0,SE,3.5,-,N/A,,Clear,140,2013-08-07 01:53:00
10:53 PM,64.9,55.9,73,30.10,10.0,SE,5.8,-,N/A,,Clear,140,2013-08-07 02:53:00
11:53 PM,62.1,57.0,84,30.11,10.0,Calm,Calm,-,N/A,,Scattered Clouds,0,2013-08-07 03:53:00